KBTR/BTR METAR and TAF weather

Enter ICAO airport designator
Station Type Date Time Source
KBTR METAR 2022/01/23 11:53 UTC NOAA

KBTR 231153Z 00000KT 10SM CLR M06/M07 A3031 RMK AO2 SLP263 I1001 I6001 T10611072 11011 21061 50000


Station Type Date Time Source
KBTR Decoded METAR 2022/01/23 11:53 UTC NOAA

BATON ROUGE METRO RYAN FIELD, LA, United States (KBTR) 30-32N 91-09W 21M
Jan 23, 2022 - 06:53 AM EST / 2022.01.23 1153 UTC
Wind: Calm:0
Visibility: 10 mile(s):0
Sky conditions: clear
Temperature: 21.0 F (-6.1 C)
Dew Point: 19.0 F (-7.2 C)
Relative Humidity: 91%
Pressure (altimeter): 30.31 in. Hg (1026 hPa)
Pressure tendency: 0.00 inches (0.0 hPa) higher than three hours ago
ob: KBTR 231153Z 00000KT 10SM CLR M06/M07 A3031 RMK AO2 SLP263 I1001 I6001 T10611072 11011 21061 50000
cycle: 12

Station Type Date Time Source
KBTR TAF 2022/01/23 12:22 UTC NOAA

TAF KBTR 231120Z 2312/2412 00000KT P6SM SKC

Example: see airport list